createdAt,value
2018-01-30T00:01:40.550Z,1.10
2018-01-30T00:04:07.996Z,1.00
2018-01-30T00:06:35.456Z,1.00
2018-01-30T00:09:02.897Z,1.10
2018-01-30T00:11:30.331Z,1.10
2018-01-30T00:13:57.859Z,0.90
2018-01-30T00:16:25.292Z,1.00
2018-01-30T00:18:53.496Z,1.00
2018-01-30T00:21:20.926Z,0.90
2018-01-30T00:23:48.363Z,0.90
2018-01-30T00:26:15.796Z,0.90
2018-01-30T00:28:43.246Z,0.90
2018-01-30T00:31:11.444Z,0.90
2018-01-30T00:33:38.904Z,1.00
2018-01-30T00:36:07.107Z,0.95
2018-01-30T00:38:34.556Z,0.90
2018-01-30T00:41:02.788Z,0.80
2018-01-30T00:43:30.268Z,0.90
2018-01-30T00:45:57.724Z,1.00
2018-01-30T00:48:25.199Z,1.00
2018-01-30T00:50:52.633Z,1.00
2018-01-30T00:53:20.077Z,0.97
2018-01-30T00:55:47.504Z,0.80
2018-01-30T00:58:14.948Z,1.00
2018-01-30T01:00:42.380Z,1.10
2018-01-30T01:03:10.583Z,0.93
2018-01-30T01:05:38.785Z,0.80
2018-01-30T01:08:06.222Z,1.00
2018-01-30T01:10:34.432Z,1.30
2018-01-30T01:13:01.854Z,1.20
2018-01-30T01:15:29.395Z,1.13
2018-01-30T01:17:56.832Z,1.13
2018-01-30T01:20:25.027Z,1.00
2018-01-30T01:22:52.465Z,1.03
2018-01-30T01:25:19.895Z,0.90
2018-01-30T01:27:47.322Z,1.07
2018-01-30T01:30:14.760Z,0.90
2018-01-30T01:32:42.200Z,1.10
2018-01-30T01:35:09.663Z,1.07
2018-01-30T01:37:37.100Z,1.00
2018-01-30T01:40:05.297Z,0.90
2018-01-30T01:42:32.736Z,1.20
2018-01-30T01:45:00.169Z,1.10
2018-01-30T01:47:27.627Z,1.00
2018-01-30T01:49:55.096Z,1.00
2018-01-30T01:52:22.543Z,1.00
2018-01-30T01:54:50.046Z,1.10
2018-01-30T01:57:17.512Z,1.27
2018-01-30T01:59:44.950Z,0.90
2018-01-30T02:02:12.388Z,0.93
2018-01-30T02:04:40.587Z,1.00
2018-01-30T02:07:08.780Z,2.97
2018-01-30T02:09:36.230Z,1.73
2018-01-30T02:12:04.427Z,1.03
2018-01-30T02:14:32.636Z,1.00
2018-01-30T02:17:00.095Z,1.07
2018-01-30T02:19:27.528Z,0.90
2018-01-30T02:21:55.054Z,1.10
2018-01-30T02:24:22.483Z,0.70
2018-01-30T02:26:50.678Z,0.87
2018-01-30T02:29:18.115Z,0.80
2018-01-30T02:31:45.554Z,0.80
2018-01-30T02:34:13.021Z,0.80
2018-01-30T02:36:40.490Z,0.73
2018-01-30T02:39:07.926Z,0.80
2018-01-30T02:41:35.355Z,0.77
2018-01-30T02:44:02.788Z,0.80
2018-01-30T02:46:30.236Z,0.80
2018-01-30T02:48:57.732Z,1.20
2018-01-30T02:51:25.158Z,0.90
2018-01-30T02:53:52.586Z,0.80
2018-01-30T02:56:20.010Z,0.70
2018-01-30T02:58:47.433Z,0.70
2018-01-30T03:01:14.871Z,0.70
2018-01-30T03:03:42.302Z,0.70
2018-01-30T03:06:09.738Z,0.80
2018-01-30T03:08:37.175Z,0.80
2018-01-30T03:11:04.636Z,0.90
2018-01-30T03:13:32.104Z,0.93
2018-01-30T03:15:59.522Z,0.90
2018-01-30T03:18:27.718Z,0.80
2018-01-30T03:20:55.911Z,0.70
2018-01-30T03:23:23.351Z,1.00
2018-01-30T03:25:50.886Z,0.90
2018-01-30T03:28:18.355Z,0.80
2018-01-30T03:30:45.784Z,0.80
2018-01-30T03:33:14.011Z,1.10
2018-01-30T03:35:41.474Z,1.10
2018-01-30T03:38:08.912Z,0.70
2018-01-30T03:40:36.415Z,1.00
2018-01-30T03:43:03.878Z,0.90
2018-01-30T03:45:31.307Z,0.90
2018-01-30T03:47:59.511Z,0.80
2018-01-30T03:50:27.002Z,1.00
2018-01-30T03:52:54.443Z,1.00
2018-01-30T03:55:21.866Z,1.10
2018-01-30T03:57:49.298Z,1.10
2018-01-30T04:00:16.751Z,1.10
2018-01-30T04:02:44.189Z,1.00
2018-01-30T04:05:12.383Z,1.00
2018-01-30T04:07:39.818Z,1.10
2018-01-30T04:10:07.579Z,1.10
2018-01-30T04:12:35.012Z,1.03
2018-01-30T04:15:02.453Z,0.83
2018-01-30T04:17:29.875Z,0.90
2018-01-30T04:19:57.306Z,0.90
2018-01-30T04:22:24.730Z,1.00
2018-01-30T04:24:52.163Z,1.10
2018-01-30T04:27:19.594Z,0.83
2018-01-30T04:29:47.018Z,0.97
2018-01-30T04:32:14.446Z,0.93
2018-01-30T04:34:41.878Z,1.20
2018-01-30T04:37:09.298Z,1.30
2018-01-30T04:39:36.733Z,1.00
2018-01-30T04:42:04.923Z,1.23
2018-01-30T04:44:33.123Z,1.00
2018-01-30T04:47:01.315Z,1.50
2018-01-30T04:49:29.514Z,0.87
2018-01-30T04:51:57.715Z,1.67
2018-01-30T04:54:25.906Z,0.90
2018-01-30T04:56:54.103Z,1.17
2018-01-30T04:59:22.302Z,1.37
2018-01-30T05:01:50.494Z,1.10
2018-01-30T05:04:17.922Z,1.00
2018-01-30T05:06:45.346Z,1.20
2018-01-30T05:09:12.778Z,1.20
2018-01-30T05:11:40.202Z,1.27
2018-01-30T05:14:07.638Z,1.50
2018-01-30T05:16:35.062Z,1.73
2018-01-30T05:19:02.495Z,2.07
2018-01-30T05:21:29.930Z,2.10
2018-01-30T05:23:57.358Z,2.70
2018-01-30T05:26:24.786Z,2.03
2018-01-30T05:28:52.212Z,1.90
2018-01-30T05:31:19.698Z,2.10
2018-01-30T05:33:47.127Z,1.67
2018-01-30T05:36:14.563Z,1.47
2018-01-30T05:38:41.986Z,1.53
2018-01-30T05:41:09.422Z,1.60
2018-01-30T05:43:36.851Z,1.80
2018-01-30T05:46:04.292Z,1.60
2018-01-30T05:48:31.719Z,1.80
2018-01-30T05:50:59.148Z,1.30
2018-01-30T05:53:26.579Z,2.00
2018-01-30T05:55:54.016Z,1.73
2018-01-30T05:58:21.442Z,1.77
2018-01-30T06:00:48.920Z,2.00
2018-01-30T06:03:16.306Z,1.50
2018-01-30T06:05:43.742Z,1.80
2018-01-30T06:08:11.175Z,1.80
2018-01-30T06:10:39.387Z,2.30
2018-01-30T06:13:07.584Z,2.20
2018-01-30T06:15:35.770Z,2.33
2018-01-30T06:18:03.966Z,2.13
2018-01-30T06:20:32.162Z,2.37
2018-01-30T06:22:59.595Z,1.80
2018-01-30T06:25:27.013Z,1.80
2018-01-30T06:27:54.455Z,2.13
2018-01-30T06:30:21.883Z,2.00
2018-01-30T06:32:49.310Z,1.90
2018-01-30T06:35:16.748Z,1.90
2018-01-30T06:37:44.161Z,2.30
2018-01-30T06:40:11.592Z,1.90
2018-01-30T06:42:39.022Z,2.30
2018-01-30T06:45:06.451Z,2.10
2018-01-30T06:47:33.882Z,2.53
2018-01-30T06:50:01.313Z,2.10
2018-01-30T06:52:28.742Z,2.17
2018-01-30T06:54:56.171Z,2.70
2018-01-30T06:57:23.606Z,2.50
2018-01-30T06:59:51.027Z,2.53
2018-01-30T07:02:18.468Z,2.33
2018-01-30T07:04:45.890Z,2.23
2018-01-30T07:07:13.339Z,2.00
2018-01-30T07:09:40.761Z,1.77
2018-01-30T07:12:08.206Z,1.87
2018-01-30T07:14:35.638Z,1.90
2018-01-30T07:17:03.844Z,1.40
2018-01-30T07:19:32.036Z,1.50
2018-01-30T07:22:00.235Z,1.70
2018-01-30T07:24:28.433Z,1.80
2018-01-30T07:26:56.640Z,1.30
2018-01-30T07:29:24.835Z,1.30
2018-01-30T07:31:53.034Z,1.60
2018-01-30T07:34:21.243Z,1.50
2018-01-30T07:36:48.694Z,1.30
2018-01-30T07:39:16.120Z,1.40
2018-01-30T07:41:43.554Z,1.40
2018-01-30T07:44:10.987Z,1.50
2018-01-30T07:46:38.426Z,1.70
2018-01-30T07:49:06.637Z,1.60
2018-01-30T07:51:34.846Z,2.12
2018-01-30T07:54:02.276Z,2.12
2018-01-30T07:56:29.710Z,3.30
2018-01-30T07:58:57.152Z,2.20
2018-01-30T08:01:24.592Z,2.30
2018-01-30T08:03:52.040Z,2.25
2018-01-30T08:06:20.238Z,2.90
2018-01-30T08:08:49.256Z,2.70
2018-01-30T08:11:17.443Z,2.90
2018-01-30T08:13:45.650Z,2.70
2018-01-30T08:16:13.847Z,2.90
2018-01-30T08:18:42.047Z,2.80
2018-01-30T08:21:10.238Z,2.97
2018-01-30T08:23:38.438Z,3.27
2018-01-30T08:26:06.637Z,2.97
2018-01-30T08:28:34.835Z,3.30
2018-01-30T08:31:03.046Z,3.22
2018-01-30T08:33:30.486Z,3.58
2018-01-30T08:35:57.915Z,3.60
2018-01-30T08:38:25.342Z,3.50
2018-01-30T08:40:52.775Z,4.20
2018-01-30T08:43:20.969Z,3.90
2018-01-30T08:45:48.412Z,3.40
2018-01-30T08:48:15.852Z,4.12
2018-01-30T08:50:43.262Z,4.90
2018-01-30T08:53:10.741Z,5.37
2018-01-30T08:55:38.146Z,4.10
2018-01-30T08:58:06.359Z,3.92
2018-01-30T09:00:34.560Z,3.70
2018-01-30T09:03:02.752Z,3.40
2018-01-30T09:05:30.942Z,3.70
2018-01-30T09:07:59.143Z,4.60
2018-01-30T09:10:27.347Z,3.67
2018-01-30T09:12:55.552Z,3.83
2018-01-30T09:15:23.742Z,3.70
2018-01-30T09:17:51.938Z,3.60
2018-01-30T09:20:20.134Z,3.90
2018-01-30T09:22:48.335Z,3.75
2018-01-30T09:25:16.535Z,3.85
2018-01-30T09:27:44.734Z,4.03
2018-01-30T09:30:12.926Z,4.28
2018-01-30T09:32:41.126Z,4.00
2018-01-30T09:35:09.333Z,4.15
2018-01-30T09:37:37.541Z,4.57
2018-01-30T09:40:04.967Z,4.18
2018-01-30T09:42:32.410Z,4.30
2018-01-30T09:44:59.826Z,3.90
2018-01-30T09:47:27.266Z,3.90
2018-01-30T09:49:54.698Z,4.00
2018-01-30T09:52:22.134Z,4.20
2018-01-30T09:54:49.549Z,4.45
2018-01-30T09:57:16.987Z,4.65
2018-01-30T09:59:44.422Z,4.43
2018-01-30T10:02:11.847Z,4.60
2018-01-30T10:04:39.290Z,4.57
2018-01-30T10:07:06.719Z,4.90
2018-01-30T10:09:34.146Z,4.72
2018-01-30T10:12:01.575Z,4.40
2018-01-30T10:14:29.019Z,4.95
2018-01-30T10:16:57.214Z,2.97
2018-01-30T10:19:24.655Z,2.40
2018-01-30T10:21:52.082Z,2.10
2018-01-30T10:24:19.522Z,1.77
2018-01-30T10:26:46.970Z,2.10
2018-01-30T10:29:14.401Z,1.70
2018-01-30T10:31:41.830Z,1.90
2018-01-30T10:34:09.271Z,2.00
2018-01-30T10:36:36.694Z,1.80
2018-01-30T10:39:04.130Z,1.70
2018-01-30T10:41:31.575Z,1.80
2018-01-30T10:43:59.015Z,2.10
2018-01-30T10:46:27.202Z,1.70
2018-01-30T10:48:54.634Z,2.00
2018-01-30T10:51:22.079Z,1.90
2018-01-30T10:53:50.278Z,1.80
2018-01-30T10:56:18.488Z,1.70
2018-01-30T10:58:45.922Z,1.67
2018-01-30T11:01:13.344Z,1.80
2018-01-30T11:03:41.550Z,1.80
2018-01-30T11:06:08.974Z,2.10
2018-01-30T11:08:36.419Z,1.70
2018-01-30T11:11:03.843Z,1.73
2018-01-30T11:13:31.286Z,1.70
2018-01-30T11:15:58.719Z,2.50
2018-01-30T11:18:26.155Z,1.80
2018-01-30T11:20:53.587Z,1.60
2018-01-30T11:23:21.790Z,1.53
2018-01-30T11:25:49.979Z,1.80
2018-01-30T11:28:17.402Z,1.70
2018-01-30T11:30:44.855Z,1.70
2018-01-30T11:33:13.055Z,1.90
2018-01-30T11:35:41.271Z,2.03
2018-01-30T11:38:08.703Z,2.12
2018-01-30T11:40:36.142Z,2.00
2018-01-30T11:43:03.578Z,1.90
2018-01-30T11:45:31.029Z,1.90
2018-01-30T11:47:58.459Z,2.03
2018-01-30T11:50:26.664Z,1.90
2018-01-30T11:52:54.851Z,2.10
2018-01-30T11:55:23.046Z,2.10
2018-01-30T11:57:51.242Z,1.57
2018-01-30T12:00:19.438Z,1.80
2018-01-30T12:02:47.634Z,1.90
2018-01-30T12:05:15.852Z,2.50
2018-01-30T12:07:44.042Z,2.30
2018-01-30T12:10:12.238Z,2.35
2018-01-30T12:12:39.677Z,2.80
2018-01-30T12:15:07.106Z,3.10
2018-01-30T12:17:35.307Z,3.20
2018-01-30T12:20:02.738Z,3.30
2018-01-30T12:22:30.161Z,3.40
2018-01-30T12:24:58.354Z,3.50
2018-01-30T12:27:26.564Z,3.15
2018-01-30T12:29:54.758Z,2.90
2018-01-30T12:32:22.970Z,2.72
2018-01-30T12:34:50.394Z,2.40
2018-01-30T12:37:17.835Z,2.20
2018-01-30T12:39:45.254Z,2.47
2018-01-30T12:42:12.695Z,2.75
2018-01-30T12:44:40.126Z,2.20
2018-01-30T12:47:07.559Z,2.17
2018-01-30T12:49:34.998Z,2.30
2018-01-30T12:52:02.443Z,2.20
2018-01-30T12:54:29.879Z,1.80
2018-01-30T12:56:58.076Z,2.10
2018-01-30T12:59:26.273Z,2.30
2018-01-30T13:01:54.470Z,2.20
2018-01-30T13:04:21.890Z,1.90
2018-01-30T13:06:49.339Z,1.98
2018-01-30T13:09:17.543Z,1.77
2018-01-30T13:11:44.982Z,2.00
2018-01-30T13:14:12.403Z,2.15
2018-01-30T13:16:39.831Z,2.10
2018-01-30T13:19:07.266Z,2.20
2018-01-30T13:21:34.718Z,10.70
2018-01-30T13:24:02.143Z,9.85
2018-01-30T13:26:29.570Z,2.20
2018-01-30T13:28:57.000Z,2.00
2018-01-30T13:33:16.819Z,3.03
2018-01-30T13:35:44.262Z,2.60
2018-01-30T13:38:11.757Z,2.00
2018-01-30T13:40:39.907Z,2.40
2018-01-30T13:43:08.115Z,2.20
2018-01-30T13:45:36.315Z,2.50
2018-01-30T13:48:04.518Z,2.10
2018-01-30T13:50:32.723Z,2.22
2018-01-30T13:53:00.175Z,2.30
2018-01-30T13:55:27.610Z,2.20
2018-01-30T13:57:55.056Z,2.30
2018-01-30T14:00:22.482Z,1.90
2018-01-30T14:02:49.930Z,2.10
2018-01-30T14:05:17.358Z,1.95
2018-01-30T14:07:44.797Z,1.80
2018-01-30T14:10:12.222Z,2.10
2018-01-30T14:12:39.675Z,2.00
2018-01-30T14:15:07.102Z,1.80
2018-01-30T14:17:35.308Z,2.00
2018-01-30T14:20:03.497Z,1.80
2018-01-30T14:22:31.695Z,2.10
2018-01-30T14:24:59.882Z,1.93
2018-01-30T14:27:27.372Z,3.20
2018-01-30T14:29:54.795Z,2.78
2018-01-30T14:32:22.231Z,2.40
2018-01-30T14:34:49.664Z,2.10
2018-01-30T14:37:17.102Z,2.10
2018-01-30T14:39:45.311Z,2.25
2018-01-30T14:42:13.531Z,2.03
2018-01-30T14:44:40.954Z,2.40
2018-01-30T14:47:08.395Z,2.10
2018-01-30T14:49:35.835Z,2.45
2018-01-30T14:52:04.039Z,3.20
2018-01-30T14:54:32.252Z,2.40
2018-01-30T14:57:00.460Z,2.30
2018-01-30T14:59:28.659Z,2.55
2018-01-30T15:01:56.871Z,2.50
2018-01-30T15:04:24.299Z,2.30
2018-01-30T15:06:51.734Z,2.10
2018-01-30T15:09:19.210Z,2.10
2018-01-30T15:11:46.631Z,1.90
2018-01-30T15:14:14.066Z,2.17
2018-01-30T15:16:42.265Z,2.30
2018-01-30T15:19:09.699Z,1.83
2018-01-30T15:21:37.118Z,2.30
2018-01-30T15:24:05.323Z,2.00
2018-01-30T15:26:33.656Z,1.70
2018-01-30T15:29:01.091Z,2.10
2018-01-30T15:31:28.523Z,1.85
2018-01-30T15:33:55.954Z,2.50
2018-01-30T15:36:24.147Z,6.05
2018-01-30T15:38:51.595Z,4.90
2018-01-30T15:41:19.799Z,5.90
2018-01-30T15:43:47.272Z,6.12
2018-01-30T15:46:14.666Z,6.25
2018-01-30T15:48:42.109Z,4.45
2018-01-30T15:51:09.538Z,3.80
2018-01-30T15:53:37.025Z,2.58
2018-01-30T15:56:04.422Z,2.40
2018-01-30T15:58:31.854Z,3.58
2018-01-30T16:00:59.290Z,3.35
2018-01-30T16:03:27.532Z,3.00
2018-01-30T16:05:54.975Z,2.20
2018-01-30T16:08:22.401Z,2.23
2018-01-30T16:10:49.835Z,2.20
2018-01-30T16:13:18.043Z,2.40
2018-01-30T16:15:46.242Z,2.20
2018-01-30T16:18:14.487Z,2.17
2018-01-30T16:20:41.903Z,1.98
2018-01-30T16:23:09.334Z,1.50
2018-01-30T16:25:36.766Z,1.80
2018-01-30T16:28:04.204Z,1.40
2018-01-30T16:30:31.626Z,1.43
2018-01-30T16:32:59.066Z,2.90
2018-01-30T16:35:26.507Z,2.20
2018-01-30T16:37:53.947Z,4.45
2018-01-30T16:40:21.378Z,16.48
2018-01-30T16:42:49.588Z,6.80
2018-01-30T16:45:17.780Z,2.53
2018-01-30T16:47:45.234Z,2.37
2018-01-30T16:50:12.662Z,3.33
2018-01-30T16:52:40.863Z,3.87
2018-01-30T16:55:09.050Z,3.33
2018-01-30T16:57:37.260Z,3.40
2018-01-30T17:00:05.460Z,2.30
2018-01-30T17:02:32.903Z,1.90
2018-01-30T17:05:00.323Z,3.50
2018-01-30T17:07:28.527Z,2.37
2018-01-30T17:09:56.718Z,3.63
2018-01-30T17:12:24.915Z,3.57
2018-01-30T17:14:52.346Z,2.70
2018-01-30T17:17:19.770Z,2.57
2018-01-30T17:19:47.208Z,2.03
2018-01-30T17:22:14.651Z,2.43
2018-01-30T17:24:42.066Z,2.00
2018-01-30T17:27:10.065Z,1.70
2018-01-30T17:29:38.258Z,3.00
2018-01-30T17:32:05.679Z,3.53
2018-01-30T17:34:33.115Z,3.60
2018-01-30T17:37:00.543Z,3.80
2018-01-30T17:39:27.974Z,3.03
2018-01-30T17:41:55.398Z,2.90
2018-01-30T17:44:22.840Z,2.40
2018-01-30T17:46:50.272Z,1.90
2018-01-30T17:49:18.468Z,2.20
2018-01-30T17:51:46.670Z,2.30
2018-01-30T17:54:14.858Z,2.40
2018-01-30T17:56:43.054Z,2.13
2018-01-30T17:59:11.778Z,2.17
2018-01-30T18:01:39.214Z,2.63
2018-01-30T18:04:06.680Z,3.17
2018-01-30T18:06:34.871Z,2.90
2018-01-30T18:09:02.303Z,3.13
2018-01-30T18:11:29.737Z,3.90
2018-01-30T18:13:57.204Z,4.30
2018-01-30T18:16:25.450Z,6.53
2018-01-30T18:18:53.632Z,7.70
2018-01-30T18:21:21.868Z,5.80
2018-01-30T18:23:49.278Z,2.33
2018-01-30T18:26:16.715Z,3.07
2018-01-30T18:28:44.138Z,3.80
2018-01-30T18:31:11.580Z,3.30
2018-01-30T18:33:39.049Z,4.10
2018-01-30T18:36:07.285Z,6.70
2018-01-30T18:38:34.715Z,6.90
2018-01-30T18:41:02.147Z,3.77
2018-01-30T18:43:29.579Z,3.03
2018-01-30T18:45:57.015Z,3.20
2018-01-30T18:48:24.480Z,3.10
2018-01-30T18:50:52.675Z,3.13
2018-01-30T18:53:20.867Z,2.97
2018-01-30T18:55:49.060Z,2.67
2018-01-30T18:58:16.491Z,4.63
2018-01-30T19:00:43.919Z,3.50
2018-01-30T19:03:11.355Z,3.43
2018-01-30T19:05:38.835Z,3.40
2018-01-30T19:08:06.258Z,4.73
2018-01-30T19:10:33.682Z,5.00
2018-01-30T19:13:01.123Z,7.30
2018-01-30T19:15:29.365Z,5.00
2018-01-30T19:17:56.787Z,6.63
2018-01-30T19:20:24.214Z,5.70
2018-01-30T19:22:51.646Z,4.80
2018-01-30T19:25:19.079Z,4.50
2018-01-30T19:27:46.514Z,6.67
2018-01-30T19:30:13.943Z,6.20
2018-01-30T19:32:41.431Z,6.10
2018-01-30T19:35:08.846Z,9.27
2018-01-30T19:37:36.282Z,9.30
2018-01-30T19:40:03.724Z,7.70
2018-01-30T19:42:31.209Z,12.30
2018-01-30T19:44:58.626Z,11.63
2018-01-30T19:47:26.071Z,12.17
2018-01-30T19:49:54.267Z,9.50
2018-01-30T19:52:21.754Z,7.77
2018-01-30T19:54:49.229Z,8.10
2018-01-30T19:57:16.652Z,5.80
2018-01-30T19:59:44.897Z,6.07
2018-01-30T20:02:12.358Z,4.80
2018-01-30T20:04:39.873Z,12.60
2018-01-30T20:07:07.350Z,15.40
2018-01-30T20:09:34.870Z,23.93
2018-01-30T20:12:02.292Z,19.57
2018-01-30T20:14:29.772Z,16.20
2018-01-30T20:16:57.190Z,13.27
2018-01-30T20:19:24.632Z,17.60
2018-01-30T20:21:52.063Z,14.57
2018-01-30T20:24:19.561Z,14.77
2018-01-30T20:26:46.975Z,11.80
2018-01-30T20:29:14.475Z,12.53
2018-01-30T20:31:41.886Z,11.60
2018-01-30T20:34:10.095Z,14.83
2018-01-30T20:36:38.350Z,13.27
2018-01-30T20:39:05.820Z,15.50
2018-01-30T20:41:33.238Z,15.47
2018-01-30T20:44:00.735Z,19.03
2018-01-30T20:46:28.294Z,12.50
2018-01-30T20:48:55.723Z,14.40
2018-01-30T20:51:23.201Z,15.57
2018-01-30T20:53:50.624Z,9.97
2018-01-30T20:56:18.114Z,11.77
2018-01-30T20:58:45.539Z,9.30
2018-01-30T21:01:13.798Z,13.23
2018-01-30T21:03:41.257Z,15.37
2018-01-30T21:06:08.678Z,8.77
2018-01-30T21:08:36.157Z,9.70
2018-01-30T21:11:03.630Z,8.63
2018-01-30T21:13:31.050Z,10.27
2018-01-30T21:15:59.297Z,11.40
2018-01-30T21:18:26.715Z,10.87
2018-01-30T21:20:54.160Z,10.13
2018-01-30T21:23:21.594Z,10.47
2018-01-30T21:25:49.798Z,11.47
2018-01-30T21:28:17.998Z,10.70
2018-01-30T21:30:46.254Z,9.93
2018-01-30T21:33:13.735Z,9.63
2018-01-30T21:35:41.155Z,8.53
2018-01-30T21:38:09.417Z,10.33
2018-01-30T21:40:36.839Z,7.23
2018-01-30T21:43:04.349Z,8.70
2018-01-30T21:45:31.812Z,8.40
2018-01-30T21:47:59.283Z,9.00
2018-01-30T21:50:26.702Z,5.50
2018-01-30T21:52:54.894Z,9.57
2018-01-30T21:55:22.377Z,7.90
2018-01-30T21:57:49.799Z,8.70
2018-01-30T22:00:17.244Z,8.17
2018-01-30T22:02:44.723Z,7.20
2018-01-30T22:05:12.197Z,6.10
2018-01-30T22:07:39.612Z,6.63
2018-01-30T22:10:07.866Z,6.23
2018-01-30T22:12:35.284Z,7.20
2018-01-30T22:15:02.767Z,5.43
2018-01-30T22:17:30.225Z,5.33
2018-01-30T22:19:57.647Z,5.20
2018-01-30T22:22:25.075Z,5.43
2018-01-30T22:24:52.554Z,5.33
2018-01-30T22:27:20.748Z,4.90
2018-01-30T22:29:48.988Z,5.90
2018-01-30T22:32:16.447Z,9.23
2018-01-30T22:34:43.842Z,7.77
2018-01-30T22:37:11.320Z,13.20
2018-01-30T22:39:38.747Z,9.07
2018-01-30T22:42:06.184Z,11.30
2018-01-30T22:44:33.606Z,10.60
2018-01-30T22:47:01.047Z,9.90
